Commerce City, Colorado
Current Conditions -  °F | °C
As of 7:58 PM on Friday 31 Oct 2014 (Local Time) from KBKF Reporting Station
Scattered Clouds Scattered Clouds  
Wind Chill: 42°   Ceiling: Unl
Heat Index: 48°   Visibility: 10mi
Dew Point: 28°   Wind: 13mph
Humidity: 47%   Direction: 180°S
Pressure: 30.11"   Gusts: NA
Location:  39.81°N, 104.92°W
Report Text: KBKF 010158Z 18011KT 10SM SCT200 09/M02 A3011 RMK AO2A SLP175 T00871022
Loading
Personal Weather Stations






























Interactive Weather Map
Tropical Storm Tracking
New forecast layout! Learn more

10-Day Weather Forecast

Advertisements
Track Severe Weather on mobile